sim
Sign-in with your pilot id or email,
or register
Callsign
Passwort

Schedule Details

Flight Number: DLH411
Departure: New York John F. Kennedy International Airport (KJFK) at 22:30
Arrival: Munich Airport (EDDM) at 06:30
Route: Lufthansa Passenger Schedule. Enter filed route here before submitting Pirep.

Weather Information
Getting current METAR information for KJFK 231451Z 28011KT 10SM CLR 22/09 A2989 RMK AO2 SLP120 T02220089 58007
Getting current METAR information for EDDM 231450Z 24007KT 9999 FEW043 19/15 Q1009 NOSIG

Schedule Frequency

Route Map